createdAt,value
2018-06-16T00:01:03.809Z,1.57
2018-06-16T00:03:31.971Z,1.53
2018-06-16T00:06:00.434Z,1.10
2018-06-16T00:08:28.657Z,1.20
2018-06-16T00:10:56.925Z,1.50
2018-06-16T00:13:25.136Z,2.67
2018-06-16T00:15:53.276Z,1.53
2018-06-16T00:18:21.434Z,1.20
2018-06-16T00:20:49.812Z,1.57
2018-06-16T00:23:17.985Z,0.90
2018-06-16T00:25:46.132Z,1.20
2018-06-16T00:28:14.336Z,1.30
2018-06-16T00:30:42.473Z,1.43
2018-06-16T00:33:10.656Z,1.80
2018-06-16T00:35:38.807Z,1.60
2018-06-16T00:38:07.408Z,1.67
2018-06-16T00:40:35.576Z,1.57
2018-06-16T00:43:03.721Z,0.80
2018-06-16T00:45:31.865Z,0.93
2018-06-16T00:48:00.181Z,1.20
2018-06-16T00:50:28.471Z,1.40
2018-06-16T00:52:56.438Z,1.40
2018-06-16T00:55:24.537Z,1.10
2018-06-16T00:57:52.798Z,0.80
2018-06-16T01:00:21.259Z,1.13
2018-06-16T01:02:49.761Z,1.93
2018-06-16T01:05:17.937Z,1.13
2018-06-16T01:07:46.235Z,1.17
2018-06-16T01:10:14.460Z,1.20
2018-06-16T01:12:42.627Z,1.00
2018-06-16T01:15:10.833Z,1.20
2018-06-16T01:17:39.024Z,0.90
2018-06-16T01:20:07.176Z,0.73
2018-06-16T01:22:35.328Z,0.77
2018-06-16T01:25:03.515Z,1.20
2018-06-16T01:27:31.696Z,1.10
2018-06-16T01:29:59.945Z,0.90
2018-06-16T01:32:28.097Z,0.80
2018-06-16T01:34:56.283Z,1.00
2018-06-16T01:37:24.442Z,0.80
2018-06-16T01:39:52.655Z,0.60
2018-06-16T01:42:20.810Z,1.10
2018-06-16T01:44:49.019Z,0.67
2018-06-16T01:47:17.218Z,0.60
2018-06-16T01:49:45.387Z,0.90
2018-06-16T01:52:13.588Z,0.77
2018-06-16T01:54:41.789Z,1.57
2018-06-16T01:57:09.997Z,0.90
2018-06-16T01:59:38.749Z,0.70
2018-06-16T02:02:06.896Z,0.60
2018-06-16T02:04:35.049Z,0.60
2018-06-16T02:07:03.198Z,0.60
2018-06-16T02:09:31.384Z,0.70
2018-06-16T02:11:59.518Z,0.77
2018-06-16T02:14:27.674Z,0.67
2018-06-16T02:16:56.684Z,0.70
2018-06-16T02:19:24.880Z,0.70
2018-06-16T02:21:53.040Z,0.70
2018-06-16T02:24:21.187Z,0.70
2018-06-16T02:26:49.332Z,0.70
2018-06-16T02:29:17.544Z,1.40
2018-06-16T02:31:45.767Z,0.67
2018-06-16T02:34:13.984Z,0.60
2018-06-16T02:36:42.177Z,0.87
2018-06-16T02:39:11.678Z,0.90
2018-06-16T02:41:39.953Z,1.43
2018-06-16T02:44:08.507Z,0.90
2018-06-16T02:46:36.677Z,0.90
2018-06-16T02:49:04.837Z,0.80
2018-06-16T02:51:32.999Z,0.90
2018-06-16T02:54:01.254Z,0.80
2018-06-16T02:56:29.400Z,0.80
2018-06-16T02:58:57.540Z,0.70
2018-06-16T03:01:25.704Z,0.87
2018-06-16T03:03:53.885Z,0.77
2018-06-16T03:06:22.160Z,0.80
2018-06-16T03:08:50.322Z,0.60
2018-06-16T03:11:18.582Z,1.10
2018-06-16T03:13:46.719Z,1.20
2018-06-16T03:16:14.880Z,1.13
2018-06-16T03:18:43.028Z,1.10
2018-06-16T03:21:11.178Z,0.87
2018-06-16T03:23:39.369Z,1.27
2018-06-16T03:26:07.687Z,0.97
2018-06-16T03:28:35.859Z,1.20
2018-06-16T03:31:04.051Z,1.40
2018-06-16T03:33:32.325Z,1.70
2018-06-16T03:36:00.527Z,1.60
2018-06-16T03:38:28.705Z,1.60
2018-06-16T03:40:56.851Z,1.60
2018-06-16T03:43:25.116Z,1.07
2018-06-16T03:45:53.336Z,1.70
2018-06-16T03:48:21.515Z,1.33
2018-06-16T03:50:49.740Z,1.10
2018-06-16T03:53:17.883Z,1.27
2018-06-16T03:55:46.042Z,1.37
2018-06-16T03:58:14.254Z,1.37
2018-06-16T04:00:42.644Z,2.23
2018-06-16T04:03:10.876Z,1.10
2018-06-16T04:05:39.037Z,2.40
2018-06-16T04:08:07.268Z,1.07
2018-06-16T04:10:35.502Z,1.40
2018-06-16T04:13:03.759Z,0.87
2018-06-16T04:15:32.008Z,1.13
2018-06-16T04:18:00.253Z,0.77
2018-06-16T04:20:28.471Z,0.80
2018-06-16T04:22:56.731Z,0.80
2018-06-16T04:25:24.991Z,1.10
2018-06-16T04:27:53.148Z,1.20
2018-06-16T04:30:21.332Z,0.70
2018-06-16T04:32:49.500Z,1.47
2018-06-16T04:35:17.688Z,2.73
2018-06-16T04:37:45.946Z,1.10
2018-06-16T04:40:14.117Z,1.10
2018-06-16T04:42:42.347Z,1.70
2018-06-16T04:45:10.601Z,1.17
2018-06-16T04:47:38.866Z,1.27
2018-06-16T04:50:07.044Z,2.20
2018-06-16T04:52:35.196Z,1.20
2018-06-16T04:55:03.444Z,0.87
2018-06-16T04:57:31.684Z,0.90
2018-06-16T04:59:59.861Z,1.00
2018-06-16T05:02:28.014Z,1.10
2018-06-16T05:04:56.177Z,1.10
2018-06-16T05:07:24.336Z,0.97
2018-06-16T05:09:52.507Z,0.73
2018-06-16T05:12:20.683Z,0.80
2018-06-16T05:14:48.944Z,1.10
2018-06-16T05:17:17.189Z,0.87
2018-06-16T05:19:45.344Z,1.10
2018-06-16T05:22:13.542Z,1.00
2018-06-16T05:24:41.696Z,1.10
2018-06-16T05:27:09.847Z,1.17
2018-06-16T05:29:38.055Z,1.60
2018-06-16T05:32:06.220Z,1.40
2018-06-16T05:34:34.380Z,1.03
2018-06-16T05:37:02.598Z,1.40
2018-06-16T05:39:30.740Z,1.00
2018-06-16T05:41:58.911Z,1.07
2018-06-16T05:44:27.143Z,1.07
2018-06-16T05:46:55.300Z,1.10
2018-06-16T05:49:23.464Z,1.57
2018-06-16T05:51:51.635Z,3.10
2018-06-16T05:54:20.000Z,2.43
2018-06-16T05:56:48.165Z,2.30
2018-06-16T05:59:16.328Z,2.00
2018-06-16T06:01:44.588Z,1.50
2018-06-16T06:04:12.752Z,1.10
2018-06-16T06:06:40.920Z,3.27
2018-06-16T06:09:10.155Z,1.70
2018-06-16T06:11:38.336Z,2.60
2018-06-16T06:14:07.477Z,1.50
2018-06-16T06:16:35.669Z,3.27
2018-06-16T06:19:03.828Z,2.03
2018-06-16T06:21:32.468Z,2.77
2018-06-16T06:24:00.689Z,2.53
2018-06-16T06:26:28.843Z,2.50
2018-06-16T06:28:57.456Z,3.03
2018-06-16T06:31:25.712Z,1.73
2018-06-16T06:33:53.869Z,1.83
2018-06-16T06:36:22.151Z,3.40
2018-06-16T06:38:50.319Z,1.60
2018-06-16T06:41:18.357Z,1.93
2018-06-16T06:43:46.582Z,2.63
2018-06-16T06:46:14.749Z,2.47
2018-06-16T06:48:42.920Z,1.53
2018-06-16T06:51:11.098Z,1.60
2018-06-16T06:53:39.257Z,2.43
2018-06-16T06:56:07.421Z,2.10
2018-06-16T06:58:35.597Z,1.50
2018-06-16T07:01:03.770Z,1.53
2018-06-16T07:03:31.929Z,1.93
2018-06-16T07:06:00.100Z,1.93
2018-06-16T07:08:28.330Z,1.97
2018-06-16T07:10:56.531Z,4.87
2018-06-16T07:13:24.644Z,2.03
2018-06-16T07:15:52.815Z,3.83
2018-06-16T07:18:20.974Z,3.40
2018-06-16T07:20:49.144Z,2.33
2018-06-16T07:23:17.397Z,2.47
2018-06-16T07:25:45.567Z,3.57
2018-06-16T07:28:13.726Z,2.33
2018-06-16T07:30:41.894Z,3.70
2018-06-16T07:33:11.081Z,2.13
2018-06-16T07:35:39.340Z,2.77
2018-06-16T07:38:07.518Z,1.97
2018-06-16T07:40:35.685Z,2.10
2018-06-16T07:43:03.619Z,2.17
2018-06-16T07:45:31.840Z,3.13
2018-06-16T07:47:59.994Z,1.30
2018-06-16T07:50:28.656Z,3.23
2018-06-16T07:52:58.534Z,2.40
2018-06-16T07:55:26.747Z,3.40
2018-06-16T07:57:55.093Z,3.30
2018-06-16T08:00:24.293Z,4.07
2018-06-16T08:02:52.567Z,3.67
2018-06-16T08:05:20.661Z,4.60
2018-06-16T08:07:48.908Z,2.63
2018-06-16T08:10:17.128Z,6.07
2018-06-16T08:12:45.333Z,5.43
2018-06-16T08:15:13.466Z,7.27
2018-06-16T08:17:41.645Z,3.40
2018-06-16T08:20:09.844Z,3.53
2018-06-16T08:22:38.024Z,2.90
2018-06-16T08:25:06.177Z,3.53
2018-06-16T08:27:34.638Z,3.53
2018-06-16T08:30:02.847Z,3.07
2018-06-16T08:32:31.063Z,2.77
2018-06-16T08:34:59.239Z,1.83
2018-06-16T08:37:27.493Z,1.77
2018-06-16T08:39:55.743Z,2.40
2018-06-16T08:42:24.205Z,4.53
2018-06-16T08:44:52.354Z,1.67
2018-06-16T08:47:20.896Z,2.57
2018-06-16T08:49:49.074Z,2.87
2018-06-16T08:52:17.236Z,4.50
2018-06-16T08:54:45.396Z,2.67
2018-06-16T08:57:13.568Z,5.13
2018-06-16T08:59:41.487Z,4.77
2018-06-16T09:02:09.784Z,5.67
2018-06-16T09:04:38.002Z,4.17
2018-06-16T09:07:06.398Z,3.10
2018-06-16T09:09:34.588Z,2.70
2018-06-16T09:12:02.748Z,2.17
2018-06-16T09:14:30.913Z,2.70
2018-06-16T09:16:59.056Z,3.47
2018-06-16T09:19:27.265Z,1.70
2018-06-16T09:21:55.491Z,2.30
2018-06-16T09:24:23.648Z,3.13
2018-06-16T09:26:51.798Z,4.03
2018-06-16T09:29:19.956Z,2.30
2018-06-16T09:31:48.323Z,2.33
2018-06-16T09:34:16.436Z,2.30
2018-06-16T09:36:44.667Z,2.00
2018-06-16T09:39:12.840Z,1.83
2018-06-16T09:41:41.046Z,2.33
2018-06-16T09:44:09.994Z,2.90
2018-06-16T09:46:38.479Z,1.73
2018-06-16T09:49:06.764Z,2.73
2018-06-16T09:51:34.908Z,3.27
2018-06-16T09:54:03.095Z,2.90
2018-06-16T09:56:31.276Z,2.40
2018-06-16T09:58:59.443Z,2.40
2018-06-16T10:01:27.650Z,1.67
2018-06-16T10:03:55.857Z,2.33
2018-06-16T10:06:24.016Z,2.03
2018-06-16T10:08:52.172Z,1.97
2018-06-16T10:11:20.326Z,2.10
2018-06-16T10:13:48.480Z,1.93
2018-06-16T10:16:16.638Z,2.43
2018-06-16T10:18:44.970Z,1.67
2018-06-16T10:21:13.175Z,1.50
2018-06-16T10:23:41.661Z,1.83
2018-06-16T10:26:09.840Z,3.67
2018-06-16T10:28:38.024Z,1.77
2018-06-16T10:31:06.193Z,2.13
2018-06-16T10:33:34.350Z,3.20
2018-06-16T10:36:02.505Z,1.90
2018-06-16T10:38:31.244Z,2.70
2018-06-16T10:40:59.631Z,2.57
2018-06-16T10:43:27.791Z,1.60
2018-06-16T10:45:55.941Z,2.23
2018-06-16T10:48:24.095Z,3.13
2018-06-16T10:50:52.270Z,3.77
2018-06-16T10:53:20.439Z,2.20
2018-06-16T10:55:48.616Z,2.93
2018-06-16T10:58:16.800Z,3.17
2018-06-16T11:00:44.956Z,4.40
2018-06-16T11:03:13.114Z,2.83
2018-06-16T11:05:41.305Z,3.93
2018-06-16T11:08:09.469Z,3.13
2018-06-16T11:10:37.615Z,3.73
2018-06-16T11:13:05.812Z,4.30
2018-06-16T11:15:33.981Z,3.93
2018-06-16T11:18:02.136Z,3.30
2018-06-16T11:20:30.396Z,2.57
2018-06-16T11:22:58.563Z,2.23
2018-06-16T11:25:26.736Z,3.43
2018-06-16T11:27:54.993Z,2.90
2018-06-16T11:30:23.234Z,3.80
2018-06-16T11:32:51.425Z,3.40
2018-06-16T11:35:19.589Z,4.00
2018-06-16T11:37:47.801Z,3.90
2018-06-16T11:40:15.989Z,3.73
2018-06-16T11:42:44.144Z,4.50
2018-06-16T11:45:12.315Z,2.63
2018-06-16T11:47:40.958Z,2.60
2018-06-16T11:50:09.164Z,4.23
2018-06-16T11:52:37.301Z,2.23
2018-06-16T11:55:05.831Z,2.77
2018-06-16T11:57:34.054Z,2.90
2018-06-16T12:00:02.265Z,2.97
2018-06-16T12:02:30.547Z,3.70
2018-06-16T12:04:58.716Z,5.37
2018-06-16T12:07:27.040Z,6.10
2018-06-16T12:09:55.191Z,4.50
2018-06-16T12:12:23.356Z,6.07
2018-06-16T12:14:51.641Z,4.60
2018-06-16T12:17:19.932Z,5.93
2018-06-16T12:19:48.128Z,4.77
2018-06-16T12:22:16.300Z,5.07
2018-06-16T12:24:44.456Z,5.13
2018-06-16T12:27:12.833Z,4.17
2018-06-16T12:29:41.032Z,4.33
2018-06-16T12:32:09.242Z,2.47
2018-06-16T12:34:37.424Z,4.07
2018-06-16T12:37:05.675Z,4.30
2018-06-16T12:39:33.928Z,3.53
2018-06-16T12:42:02.101Z,2.37
2018-06-16T12:44:30.301Z,3.63
2018-06-16T12:46:58.889Z,5.10
2018-06-16T12:49:27.138Z,3.90
2018-06-16T12:51:55.401Z,3.40
2018-06-16T12:54:23.575Z,2.33
2018-06-16T12:56:51.810Z,1.87
2018-06-16T12:59:20.034Z,4.77
2018-06-16T13:01:48.196Z,3.90
2018-06-16T13:04:16.357Z,6.37
2018-06-16T13:06:44.640Z,5.17
2018-06-16T13:09:12.789Z,5.87
2018-06-16T13:11:40.984Z,3.43
2018-06-16T13:14:09.712Z,4.03
2018-06-16T13:16:37.883Z,3.70
2018-06-16T13:19:06.029Z,4.83
2018-06-16T13:21:34.186Z,4.23
2018-06-16T13:24:02.333Z,3.40
2018-06-16T13:26:30.570Z,3.10
2018-06-16T13:28:58.840Z,4.50
2018-06-16T13:31:27.000Z,4.33
2018-06-16T13:33:55.165Z,5.10
2018-06-16T13:36:23.395Z,3.53
2018-06-16T13:38:51.509Z,4.00
2018-06-16T13:41:19.668Z,2.70
2018-06-16T13:43:47.821Z,2.93
2018-06-16T13:46:15.989Z,2.97
2018-06-16T13:48:44.137Z,4.27
2018-06-16T13:51:12.402Z,4.47
2018-06-16T13:53:40.684Z,2.47
2018-06-16T13:56:08.865Z,2.87
2018-06-16T13:58:37.285Z,2.80
2018-06-16T14:01:05.602Z,2.50
2018-06-16T14:03:33.773Z,2.57
2018-06-16T14:06:01.949Z,3.50
2018-06-16T14:08:30.298Z,5.93
2018-06-16T14:10:58.529Z,5.23
2018-06-16T14:13:26.677Z,8.07
2018-06-16T14:15:54.881Z,9.07
2018-06-16T14:18:23.042Z,6.07
2018-06-16T14:20:51.205Z,5.77
2018-06-16T14:23:19.356Z,7.73
2018-06-16T14:25:47.567Z,6.57
2018-06-16T14:28:15.687Z,6.30
2018-06-16T14:30:43.889Z,4.73
2018-06-16T14:33:12.049Z,6.70
2018-06-16T14:35:40.215Z,6.73
2018-06-16T14:38:08.385Z,6.97
2018-06-16T14:40:36.552Z,4.47
2018-06-16T14:43:04.740Z,6.63
2018-06-16T14:45:32.930Z,7.03
2018-06-16T14:48:01.096Z,4.10
2018-06-16T14:50:29.368Z,4.90
2018-06-16T14:52:57.544Z,5.33
2018-06-16T14:55:25.702Z,5.03
2018-06-16T14:57:53.865Z,5.13
2018-06-16T15:00:22.051Z,4.23
2018-06-16T15:02:50.249Z,4.20
2018-06-16T15:05:18.400Z,4.27
2018-06-16T15:07:46.576Z,4.70
2018-06-16T15:10:14.753Z,4.50
2018-06-16T15:12:42.916Z,4.23
2018-06-16T15:15:11.081Z,3.77
2018-06-16T15:17:39.252Z,4.03
2018-06-16T15:20:07.422Z,3.33
2018-06-16T15:22:35.581Z,3.67
2018-06-16T15:25:04.080Z,3.70
2018-06-16T15:27:32.264Z,4.47
2018-06-16T15:30:00.445Z,5.27
2018-06-16T15:32:28.627Z,4.23
2018-06-16T15:34:56.861Z,5.73
2018-06-16T15:37:25.032Z,4.93
2018-06-16T15:39:53.274Z,4.90
2018-06-16T15:42:21.467Z,4.63
2018-06-16T15:44:49.720Z,4.47
2018-06-16T15:47:17.902Z,3.33
2018-06-16T15:49:46.076Z,3.20
2018-06-16T15:52:14.236Z,4.77
2018-06-16T15:54:42.400Z,4.23
2018-06-16T15:57:10.564Z,5.87
2018-06-16T15:59:38.707Z,3.73
2018-06-16T16:02:06.879Z,4.07
2018-06-16T16:04:35.047Z,2.90
2018-06-16T16:07:03.670Z,2.80
2018-06-16T16:09:31.811Z,4.27
2018-06-16T16:11:59.992Z,3.03
2018-06-16T16:14:28.158Z,2.63
2018-06-16T16:16:56.316Z,2.93
2018-06-16T16:19:24.476Z,5.10
2018-06-16T16:21:52.646Z,4.33
2018-06-16T16:24:21.030Z,5.43
2018-06-16T16:26:49.197Z,5.17
2018-06-16T16:29:17.348Z,4.67
2018-06-16T16:31:45.596Z,6.27
2018-06-16T16:34:13.754Z,5.83
2018-06-16T16:36:41.937Z,4.83
2018-06-16T16:39:10.644Z,5.17
2018-06-16T16:41:39.277Z,6.40
2018-06-16T16:44:07.486Z,5.90
2018-06-16T16:46:36.228Z,5.60
2018-06-16T16:49:04.401Z,4.67
2018-06-16T16:51:32.754Z,9.10
2018-06-16T16:54:00.916Z,8.13
2018-06-16T16:56:29.285Z,7.00
2018-06-16T16:58:57.468Z,5.90
2018-06-16T17:01:25.736Z,5.53
2018-06-16T17:03:53.916Z,6.53
2018-06-16T17:06:22.101Z,6.10
2018-06-16T17:08:50.270Z,7.33
2018-06-16T17:11:18.421Z,8.90
2018-06-16T17:13:46.710Z,7.73
2018-06-16T17:16:14.936Z,6.23
2018-06-16T17:18:43.109Z,5.47
2018-06-16T17:21:11.554Z,4.43
2018-06-16T17:23:39.724Z,4.43
2018-06-16T17:26:07.878Z,4.00
2018-06-16T17:28:36.031Z,5.37
2018-06-16T17:31:04.936Z,4.57
2018-06-16T17:33:33.116Z,3.90
2018-06-16T17:36:01.432Z,6.27
2018-06-16T17:38:29.600Z,6.13
2018-06-16T17:40:57.755Z,6.20
2018-06-16T17:43:26.048Z,6.67
2018-06-16T17:45:58.373Z,4.27
2018-06-16T17:48:26.557Z,8.23
2018-06-16T17:50:54.781Z,8.87
2018-06-16T17:53:22.945Z,5.37
2018-06-16T17:55:51.097Z,4.47
2018-06-16T17:58:19.425Z,5.23
2018-06-16T18:00:47.724Z,5.87
2018-06-16T18:03:15.896Z,5.30
2018-06-16T18:05:44.192Z,7.13
2018-06-16T18:08:12.391Z,4.30
2018-06-16T18:10:40.539Z,6.27
2018-06-16T18:13:08.692Z,9.47
2018-06-16T18:15:36.939Z,3.73
2018-06-16T18:18:05.388Z,7.53
2018-06-16T18:20:33.553Z,5.90
2018-06-16T18:23:01.712Z,7.70
2018-06-16T18:25:30.078Z,5.13
2018-06-16T18:27:58.336Z,7.47
2018-06-16T18:30:26.503Z,7.63
2018-06-16T18:32:54.669Z,5.30
2018-06-16T18:35:22.917Z,4.67
2018-06-16T18:37:51.081Z,6.63
2018-06-16T18:40:19.248Z,6.33
2018-06-16T18:42:47.409Z,6.87
2018-06-16T18:45:15.547Z,8.27
2018-06-16T18:47:43.697Z,4.67
2018-06-16T18:50:11.902Z,5.23
2018-06-16T18:52:40.069Z,2.53
2018-06-16T18:55:08.269Z,3.23
2018-06-16T18:57:36.504Z,3.10
2018-06-16T19:00:05.712Z,3.07
2018-06-16T19:02:33.876Z,4.00
2018-06-16T19:05:02.124Z,3.50
2018-06-16T19:07:30.308Z,4.13
2018-06-16T19:09:58.684Z,3.17
2018-06-16T19:12:26.828Z,3.03
2018-06-16T19:14:54.992Z,2.63
2018-06-16T19:17:23.158Z,2.90
2018-06-16T19:19:51.320Z,3.77
2018-06-16T19:22:19.559Z,5.07
2018-06-16T19:24:47.812Z,3.10
2018-06-16T19:27:16.005Z,3.53
2018-06-16T19:29:44.168Z,2.90
2018-06-16T19:32:12.345Z,2.60
2018-06-16T19:34:40.632Z,2.87
2018-06-16T19:37:08.865Z,3.57
2018-06-16T19:39:37.011Z,3.53
2018-06-16T19:42:05.163Z,2.33
2018-06-16T19:44:33.412Z,2.17
2018-06-16T19:47:01.588Z,2.70
2018-06-16T19:49:29.792Z,3.20
2018-06-16T19:51:57.944Z,2.57
2018-06-16T19:54:26.188Z,1.83
2018-06-16T19:56:54.461Z,3.90
2018-06-16T19:59:22.683Z,2.63
2018-06-16T20:01:50.836Z,2.00
2018-06-16T20:04:19.039Z,2.97
2018-06-16T20:06:47.197Z,5.67
2018-06-16T20:09:15.356Z,2.23
2018-06-16T20:11:43.544Z,3.00
2018-06-16T20:14:11.711Z,3.03
2018-06-16T20:16:39.881Z,3.13
2018-06-16T20:19:08.044Z,2.58
2018-06-16T20:21:36.248Z,2.17
2018-06-16T20:24:04.420Z,3.13
2018-06-16T20:26:32.569Z,2.80
2018-06-16T20:29:00.736Z,2.80
2018-06-16T20:31:28.899Z,2.57
2018-06-16T20:33:57.056Z,1.87
2018-06-16T20:36:25.208Z,2.10
2018-06-16T20:38:53.384Z,2.13
2018-06-16T20:41:21.543Z,3.80
2018-06-16T20:43:49.716Z,2.83
2018-06-16T20:46:17.942Z,2.07
2018-06-16T20:48:46.147Z,2.03
2018-06-16T20:51:14.312Z,2.27
2018-06-16T20:53:42.465Z,3.53
2018-06-16T20:56:10.624Z,2.50
2018-06-16T20:58:38.886Z,4.27
2018-06-16T21:01:07.572Z,2.83
2018-06-16T21:03:35.937Z,2.47
2018-06-16T21:06:04.105Z,3.20
2018-06-16T21:08:32.256Z,2.37
2018-06-16T21:11:00.426Z,1.70
2018-06-16T21:13:28.723Z,2.20
2018-06-16T21:15:56.890Z,1.50
2018-06-16T21:18:25.045Z,1.30
2018-06-16T21:20:53.554Z,1.53
2018-06-16T21:23:21.792Z,1.20
2018-06-16T21:25:49.968Z,1.20
2018-06-16T21:28:18.116Z,1.20
2018-06-16T21:30:46.565Z,1.40
2018-06-16T21:33:14.949Z,1.10
2018-06-16T21:35:43.128Z,1.40
2018-06-16T21:38:11.350Z,1.97
2018-06-16T21:40:40.098Z,1.20
2018-06-16T21:43:08.498Z,1.13
2018-06-16T21:45:36.713Z,1.40
2018-06-16T21:48:05.369Z,2.20
2018-06-16T21:50:33.568Z,2.53
2018-06-16T21:53:01.736Z,3.37
2018-06-16T21:55:29.926Z,2.10
2018-06-16T21:57:59.303Z,1.40
2018-06-16T22:00:31.754Z,1.20
2018-06-16T22:03:01.268Z,1.73
2018-06-16T22:05:29.931Z,1.30
2018-06-16T22:08:03.623Z,1.50
2018-06-16T22:10:31.841Z,1.30
2018-06-16T22:13:00.797Z,1.20
2018-06-16T22:15:29.030Z,1.20
2018-06-16T22:17:57.179Z,1.77
2018-06-16T22:20:25.437Z,2.53
2018-06-16T22:22:53.648Z,2.23
2018-06-16T22:25:21.901Z,2.40
2018-06-16T22:27:50.292Z,1.77
2018-06-16T22:30:20.103Z,2.00
2018-06-16T22:32:48.290Z,1.40
2018-06-16T22:35:16.497Z,1.97
2018-06-16T22:37:44.732Z,1.60
2018-06-16T22:40:12.907Z,1.63
2018-06-16T22:42:41.182Z,1.67
2018-06-16T22:45:09.346Z,1.40
2018-06-16T22:47:37.515Z,1.47
2018-06-16T22:50:05.793Z,1.30
2018-06-16T22:52:33.896Z,1.43
2018-06-16T22:55:02.053Z,1.70
2018-06-16T22:57:30.282Z,1.40
2018-06-16T22:59:58.438Z,1.70
2018-06-16T23:02:26.614Z,1.33
2018-06-16T23:04:54.760Z,1.40
2018-06-16T23:07:22.990Z,1.73
2018-06-16T23:09:50.897Z,1.30
2018-06-16T23:12:19.068Z,1.40
2018-06-16T23:14:47.224Z,1.30
2018-06-16T23:17:15.477Z,1.30
2018-06-16T23:19:43.634Z,1.60
2018-06-16T23:23:41.018Z,1.43
2018-06-16T23:26:09.260Z,1.30
2018-06-16T23:28:37.420Z,1.53
2018-06-16T23:31:05.611Z,2.33
2018-06-16T23:33:33.760Z,1.83
2018-06-16T23:36:01.927Z,2.17
2018-06-16T23:38:30.077Z,2.20
2018-06-16T23:40:58.418Z,1.30
2018-06-16T23:43:26.568Z,1.30
2018-06-16T23:45:54.731Z,2.47
2018-06-16T23:48:22.953Z,2.00
2018-06-16T23:50:51.200Z,1.20
2018-06-16T23:53:19.356Z,1.07
2018-06-16T23:55:47.837Z,1.63
2018-06-16T23:58:15.760Z,1.73
